Pagina principale
METAR-TAF:

METAR-TAF

Aeroporti :

Aeroporto di Crotone

Crotone, Italia

latitudine: 39-00N, longitudine: 017-04E, altezza: 155 m

Osservazione

Il bollettino è stato emesso 42 minuti fa, alle 12:50 UTC
Vento 5 kt da nord/nord-est, variando fra nord/nord-ovest e est/nord-est
Temperature 26°C
Umidità 70%
Pressione 1017 hPa
Visibilità 10 km o più
nessuna nube inferiore a 1500 m e nessun cumulonembo

METAR: LIBC 271250Z 03005KT 340V070 CAVOK 26/20 Q1017

Ora: 15:32 (13:32 UTC)

Previsione

Il bollettino è stato emesso 2 ore e 32 minuti fa, alle 11:00 UTC
Previsione valida dal 27 alle 12 UTC al 28 alle 12 UTC
Vento 12 kt da sud
Visibilità 10 km o più
nessuna nube inferiore a 1500 m e nessun cumulonembo
Evoluzione graduale
dal 27 alle 18 UTC al 27 alle 20 UTC
Vento 5 kt da direzioni variabili
Evoluzione graduale
dal 28 alle 07 UTC al 28 alle 09 UTC
Vento 12 kt da nord

TAF: LIBC 271100Z 2712/2812 19012KT CAVOK BECMG 2718/2720 VRB05KT BECMG 2807/2809 01012KT

Osservazioni e previsioni meteorologiche di più di 4000 aeroporti (messaggi METAR e TAF).

Le stazioni disponibili sono rappresentate dai dischi gialli e rossi sulla carta.

Puntare il mouse per vedere il nome della stazione.

Clicca sopra per visualizzare le osservazioni e previsioni meteorologiche.

Per cambiare la mappa : fare clic sui pulsanti verdi con una croce nera per ingrandire, il pulsante verde con un trattino per diminuire, o sulla freccia verde per le mappe adiacenti.


METAR-TAF: